Terminal Aerodrome Forecast
Issued by NWS Wilmington, NC

Home | Current Version | Previous Version | Text Only | Print | Product List | Glossary On
Versions: 1 2 3 4 5 6 7 8 9 10 11 12 13 14 15
000
FTUS42 KILM 231724
TAFMYR
TAF
KMYR 231724Z 2318/2418 08009KT P6SM BKN008
     FM232000 10011KT P6SM VCSH OVC010
     FM240200 11010KT P6SM OVC007
      TEMPO 2403/2407 2SM SHRA OVC003
     FM241100 12009KT 3SM SHRA OVC010
     FM241500 15017G24KT 2SM SHRA BR OVC007=

USA.gov is the U.S. government's official web portal to all federal, state and local government web resources and services.